Fort Madison, IA

7:27 PM CDT on May 27, 2017 (GMT -0500)
Fort Madison Municipal | | Change Station
Active Advisory: Flood Warning

Elev 722 ft 40.66 °N, 91.33 °W | Updated 12 minutes ago

Clear
Clear
72 °F
Feels Like 72 °F
N
0
Wind Variable Wind from North

Today
High -- | Low -- °F
--% Chance of Precip.
Yesterday
High -- | Low -- °F
Precip. -- in
Pressure 29.80 in
Visibility 10.0 miles
Clouds Clear
Dew Point 66 °F
Humidity 83%
Rainfall 0.00 in
Snow Depth Not available.
5:38 AM 8:26 PM
Waxing Crescent, 7% visible
METAR KFSW 280015Z AUTO 00000KT 10SM CLR 22/19 A2980 RMK AO2
Pressure 29.80 in
Visibility 10.0 miles
Clouds Clear
Dew Point 66 °F
Humidity 83%
Rainfall 0.00 in
Snow Depth Not available.
5:38 AM 8:26 PM
Waxing Crescent, 7% visible
METAR KFSW 280015Z AUTO 00000KT 10SM CLR 22/19 A2980 RMK AO2

Get Your Daily Forecast Email!

Thanks for signing up!

Be on the lookout for a verification email in your inbox.

You'll start receiving severe weather alerts in your inbox..

×

10-Day Weather Forecast

Almanac

Astronomy

May. 27, 2017 Rise Set
Actual Time
Civil Twilight
Nautical Twilight
Astronomical Twilight
Moon
Length of Visible Light
Length of Day
Tomorrow will be .
, % of the Moon is Illuminated

Today's Extremes

State Highs State Lows

Community

WunderPhotos

Category 6

Welcome to Category 6. This is the collective home for Weather Underground's featured writeups by Dr. Jeff Masters (right), Bob Henson (left), Chris Burt, and other regular contributors.

Nearby

Air Quality

  Air Quality AQ Index Pollutant
Not available.

Snow Depth

Station Depth Elevation

Earthquake Activity

City Distance Mag. Time & Date
Minimum magnitude displayed is 2.5.

Coastal Water Temperatures

Place Temperature

Stations

Nearby Weather Stations

Station Location Temp. Windchill Dew Point Humidity Wind Precip. Elev Updated Type
                   

Watches & Warnings

Flood Warning
Issued: 10:47 AM CDT May. 27, 2017 – National Weather Service

... Flood Warning remains in effect until further notice...

The Flood Warning continues for
the Mississippi River at Burlington.
* Until further notice.
* At 10:00 am Saturday the stage was 16.1 feet... and rising.
* Flood stage is 15.0 feet.
* Minor flooding is occurring and moderate flooding is forecast.
* Forecast... rise to 17.7 feet Thursday... then begin falling.
* Impact... at 17.5 feet... water affects Riverview drive in Riverview
Park in Fort Madison.


Lat... Lon 4086 9110 4084 9105 4062 9108 4061 9142
     4067 9118